ADDS METAR Data INFO
IDs: Format: Raw Decoded Include TAF

Data at: 2006 UTC 19 Oct 2017

PFSH 191956Z AUTO 00000KT 7SM FEW025 SCT042 BKN050 M02/M04 A2945 RMK AO2 SLP973 T10221039 FZRANO
PFSH 191856Z AUTO 11003KT 7SM FEW023 SCT031 M06/M07 A2947 RMK AO2 SLP979 T10561067 FZRANO
PFSH 191833Z AUTO 13006KT 7SM SCT021 BKN029 BKN035 M06/M07 A2948 RMK AO2 FZRANO
PFSH 191756Z AUTO 13006KT 7SM FEW023 SCT028 BKN033 M07/M08 A2948 RMK AO2 SLP983 60000 T10671078 11056 21078 58014 FZRANO
PFSH 191656Z AUTO 12005KT 8SM SCT090 M07/M08 A2950 RMK AO2 SLP988 T10671083 FZRANO
PFSH 191556Z AUTO 13007KT 8SM CLR M07/M09 A2951 RMK AO2 SLP994 T10721089 FZRANO
PFSH 191515Z AUTO 12007KT 8SM SCT026 M06/M08 A2952 RMK AO2 FZRANO
PFSH 191456Z AUTO 11005KT 8SM BKN021 OVC027 M07/M08 A2952 RMK AO2 SNB10E38 SLP997 P0000 60000 T10671083 58017 FZRANO
PFSH 191425Z AUTO 13007KT 4SM -SN BR BKN025 BKN032 M06/M08 A2953 RMK AO2 SNB10 P0000 FZRANO
PFSH 191356Z AUTO 13006KT 8SM BKN037 M07/M09 A2954 RMK AO2 SLP003 T10721089 FZRANO
PFSH 191256Z AUTO 13007KT 8SM SCT070 M07/M09 A2956 RMK AO2 SLP010 T10721094 FZRANO
PFSH 191156Z AUTO 14007KT 8SM BKN075 M06/M10 A2957 RMK AO2 SLP014 T10611100 11028 21061 58005 FZRANO
PFSH 191056Z AUTO 12004KT 8SM FEW090 M05/M09 A2959 RMK AO2 SLP018 T10501094 FZRANO
PFSH 190956Z AUTO 00000KT 8SM CLR M05/M09 A2959 RMK AO2 SLP020 T10501089 FZRANO
PFSH 190856Z AUTO 05003KT 8SM SCT032 M05/M08 A2959 RMK AO2 SLP019 T10501083 400061050 53006 FZRANO
PFSH 190756Z AUTO 07005KT 8SM BKN030 M04/M08 A2958 RMK AO2 SLP016 T10441078 FZRANO
PFSH 190656Z AUTO 03011KT 8SM OVC030 M03/M07 A2957 RMK AO2 SLP014 T10281072 FZRANO
PFSH 190556Z AUTO 36012KT 8SM OVC034 M03/M07 A2957 RMK AO2 SLP013 60000 T10281072 10000 21028 51010 FZRANO
PFSH 190456Z AUTO 35013KT 8SM FEW032 M03/M07 A2956 RMK AO2 SLP011 T10281072 FZRANO
PFSH 190356Z AUTO 35012KT 8SM BKN040 M02/M07 A2955 RMK AO2 SLP005 T10171067 FZRANO
PFSH 190256Z AUTO 35012KT 6SM HZ FEW036 OVC045 M01/M06 A2954 RMK AO2 SNB42E54 SLP003 P0000 60000 T10111061 53003 FZRANO
PFSH 190156Z AUTO 35010KT 7SM BKN048 M01/M07 A2953 RMK AO2 SLP000 T10111072 FZRANO
PFSH 190056Z AUTO 36012KT 7SM FEW036 SCT048 M01/M08 A2953 RMK AO2 SLP999 T10061078 FZRANO
PFSH 182356Z AUTO 35014KT 7SM FEW055 00/M07 A2953 RMK AO2 SLP000 60000 T00001067 10006 21006 50000 FZRANO
PFSH 182256Z AUTO 35014KT 7SM BKN055 00/M06 A2953 RMK AO2 SLP001 T00001061 FZRANO
PFSH 182156Z AUTO 36012KT 7SM BKN032 OVC042 00/M05 A2954 RMK AO2 SLP001 T00001050 FZRANO
PFSH 182056Z AUTO 34012KT 7SM OVC044 00/M03 A2953 RMK AO2 SNE18 SLP000 P0000 60000 T00001033 53004 FZRANO
PFSH 182017Z AUTO 35010KT 6SM -SN BR FEW017 BKN033 OVC041 00/M02 A2953 RMK AO2 P0000 FZRANO
PFSH 181956Z AUTO 34013KT 4SM -SN BR SCT015 BKN024 OVC033 M01/M02 A2953 RMK AO2 UPB03E06B32E38SNE03B38 SLP999 P0000 T10061022 FZRANO
PFSH 181923Z AUTO 33007KT 6SM HZ BKN028 BKN034 OVC047 00/M03 A2952 RMK AO2 UPB03E06SNE03 P0000 FZRANO
PFSH 181856Z AUTO 35007KT 5SM -SN BR FEW022 BKN030 OVC049 M01/M03 A2952 RMK AO2 UPB29E31SNB31 SLP996 P0000 T10061028 FZRANO
PFSH 181854Z AUTO 35008KT 4SM -SN BR FEW022 BKN030 OVC047 M01/M03 A2952 RMK AO2 UPB29E31SNB31 P0000 FZRANO
PFSH 181846Z AUTO 34009KT 3SM -SN BR FEW022 BKN029 OVC044 M01/M03 A2952 RMK AO2 UPB29E31SNB31 P0000 FZRANO
PFSH 181829Z AUTO 33012KT 6SM UP SCT027 OVC042 M01/M03 A2952 RMK AO2 UPB29 P0000 FZRANO
PFSH 181756Z AUTO 34005KT 7SM BKN025 OVC029 M01/M03 A2952 RMK AO2 UPB15E36SNE15B20E29 SLP995 P0000 60000 T10061028 11006 21022 56003 FZRANO
PFSH 181656Z AUTO 35005KT 4SM -SN BR OVC023 M01/M02 A2952 RMK AO2 UPB39E41SNB41 SLP995 P0000 T10061022 FZRANO
PFSH 181641Z AUTO 32006KT 6SM -SN BR BKN023 OVC036 M01/M03 A2952 RMK AO2 UPB39E41SNB41 P0000 FZRANO
PFSH 181556Z AUTO 34005KT 7SM FEW022 OVC038 M01/M03 A2952 RMK AO2 SLP997 T10111033 FZRANO
PFSH 181535Z AUTO 34004KT 8SM SCT024 OVC036 M01/M03 A2952 RMK AO2 FZRANO
PFSH 181456Z AUTO 10003KT 8SM OVC024 M02/M03 A2953 RMK AO2 SNB23E51 SLP999 P0000 60000 T10221033 58003 FZRANO
PFSH 181356Z AUTO 34006KT 8SM BKN028 M02/M04 A2953 RMK AO2 SLP999 T10171039 FZRANO
PFSH 181349Z AUTO 34006KT 8SM BKN028 M02/M04 A2953 RMK AO2 FZRANO
PFSH 181256Z AUTO 01006KT 8SM CLR M02/M04 A2954 RMK AO2 SLP002 T10221039 FZRANO
PFSH 181156Z AUTO 34008KT 8SM CLR M02/M04 A2954 RMK AO2 SLPNO 60000 7//// T10221044 10000 21022 58001 FZRANO
PFSH 181056Z AUTO 33008KT 8SM FEW028 M02/M04 A2954 RMK AO2 SLPNO T10171039 FZRANO
PFSH 180956Z AUTO 33008KT 8SM FEW025 BKN032 M01/M03 A2954 RMK AO2 SNB04E36 SLPNO P0000 T10111028 FZRANO
PFSH 180856Z AUTO 33009KT 8SM OVC040 M01/M02 A2954 RMK AO2 SLPNO T10061022 400171011 53005 FZRANO